createdAt,value
2017-09-03T00:01:20.063Z,94795.40
2017-09-03T00:03:47.626Z,94797.56
2017-09-03T00:06:15.212Z,94801.97
2017-09-03T00:08:43.110Z,94807.44
2017-09-03T00:11:10.688Z,94808.55
2017-09-03T00:13:39.195Z,94804.75
2017-09-03T00:16:07.655Z,94808.34
2017-09-03T00:18:36.249Z,94807.08
2017-09-03T00:21:03.808Z,94810.77
2017-09-03T00:23:31.871Z,94797.05
2017-09-03T00:25:59.404Z,94790.98
2017-09-03T00:28:26.933Z,94799.83
2017-09-03T00:30:55.421Z,94787.61
2017-09-03T00:33:23.220Z,94791.65
2017-09-03T00:35:50.808Z,94789.16
2017-09-03T00:38:18.415Z,94785.34
2017-09-03T00:40:45.984Z,94780.99
2017-09-03T00:43:13.510Z,94784.20
2017-09-03T00:45:41.103Z,94785.19
2017-09-03T00:48:08.719Z,94794.67
2017-09-03T00:50:36.290Z,94784.20
2017-09-03T00:53:03.853Z,94780.60
2017-09-03T00:55:31.429Z,94773.94
2017-09-03T00:57:58.958Z,94774.09
2017-09-03T01:00:26.675Z,94783.55
2017-09-03T01:02:54.210Z,94778.56
2017-09-03T01:05:21.981Z,94786.48
2017-09-03T01:07:49.569Z,94778.80
2017-09-03T01:10:17.133Z,94773.75
2017-09-03T01:12:44.715Z,94777.03
2017-09-03T01:15:12.371Z,94777.95
2017-09-03T01:17:39.927Z,94781.09
2017-09-03T01:20:07.455Z,94780.58
2017-09-03T01:22:35.085Z,94771.84
2017-09-03T01:25:02.627Z,94779.19
2017-09-03T01:27:30.185Z,94789.47
2017-09-03T01:29:57.786Z,94797.90
2017-09-03T01:32:25.370Z,94790.75
2017-09-03T01:34:52.885Z,94784.78
2017-09-03T01:37:21.182Z,94780.61
2017-09-03T01:39:48.847Z,94775.02
2017-09-03T01:42:16.832Z,94767.27
2017-09-03T01:44:44.337Z,94772.47
2017-09-03T01:47:11.911Z,94759.59
2017-09-03T01:49:39.492Z,94763.81
2017-09-03T01:52:07.048Z,94751.45
2017-09-03T01:54:34.652Z,94754.44
2017-09-03T01:57:02.208Z,94754.45
2017-09-03T01:59:29.766Z,94762.44
2017-09-03T02:01:58.541Z,94757.61
2017-09-03T02:04:26.085Z,94755.47
2017-09-03T02:06:57.697Z,94757.87
2017-09-03T02:09:25.268Z,94747.67
2017-09-03T02:11:52.810Z,94745.89
2017-09-03T02:14:20.427Z,94744.24
2017-09-03T02:16:50.034Z,94742.20
2017-09-03T02:19:18.000Z,94748.36
2017-09-03T02:21:46.675Z,94753.13
2017-09-03T02:24:14.519Z,94754.27
2017-09-03T02:26:42.068Z,94750.83
2017-09-03T02:29:09.626Z,94752.49
2017-09-03T02:31:37.165Z,94750.28
2017-09-03T02:34:04.712Z,94739.98
2017-09-03T02:36:32.246Z,94746.67
2017-09-03T02:38:59.812Z,94735.39
2017-09-03T02:41:27.384Z,94742.75
2017-09-03T02:43:54.934Z,94750.63
2017-09-03T02:46:22.546Z,94747.74
2017-09-03T02:48:50.064Z,94745.23
2017-09-03T02:51:17.599Z,94747.34
2017-09-03T02:53:45.460Z,94749.22
2017-09-03T02:56:12.981Z,94742.65
2017-09-03T02:58:40.524Z,94737.79
2017-09-03T03:01:08.327Z,94737.99
2017-09-03T03:03:35.866Z,94739.48
2017-09-03T03:06:03.476Z,94741.71
2017-09-03T03:08:31.388Z,94734.45
2017-09-03T03:10:58.967Z,94737.95
2017-09-03T03:13:26.493Z,94737.94
2017-09-03T03:15:54.038Z,94736.09
2017-09-03T03:18:21.811Z,94734.69
2017-09-03T03:20:49.369Z,94742.87
2017-09-03T03:23:16.983Z,94741.33
2017-09-03T03:25:44.862Z,94748.41
2017-09-03T03:28:12.506Z,94749.69
2017-09-03T03:30:40.159Z,94746.24
2017-09-03T03:33:07.773Z,94738.92
2017-09-03T03:35:35.351Z,94744.61
2017-09-03T03:38:03.355Z,94737.73
2017-09-03T03:40:30.890Z,94728.36
2017-09-03T03:42:58.466Z,94734.87
2017-09-03T03:45:26.038Z,94734.13
2017-09-03T03:47:53.649Z,94729.13
2017-09-03T03:50:21.193Z,94727.98
2017-09-03T03:52:48.764Z,94732.73
2017-09-03T03:55:16.502Z,94722.56
2017-09-03T03:57:44.047Z,94721.51
2017-09-03T04:00:11.699Z,94726.61
2017-09-03T04:02:39.297Z,94722.31
2017-09-03T04:05:06.813Z,94729.23
2017-09-03T04:07:34.384Z,94732.19
2017-09-03T04:10:01.962Z,94737.41
2017-09-03T04:12:29.504Z,94733.13
2017-09-03T04:14:57.835Z,94716.25
2017-09-03T04:17:26.290Z,94722.62
2017-09-03T04:19:53.881Z,94718.28
2017-09-03T04:22:21.453Z,94732.50
2017-09-03T04:24:48.975Z,94723.70
2017-09-03T04:27:16.581Z,94714.88
2017-09-03T04:29:44.203Z,94724.23
2017-09-03T04:32:11.753Z,94733.13
2017-09-03T04:34:39.883Z,94726.86
2017-09-03T04:37:07.381Z,94728.50
2017-09-03T04:39:34.936Z,94732.69
2017-09-03T04:42:02.698Z,94737.51
2017-09-03T04:44:30.243Z,94722.37
2017-09-03T04:46:57.820Z,94733.46
2017-09-03T04:49:25.361Z,94722.69
2017-09-03T04:51:53.095Z,94730.16
2017-09-03T04:54:20.645Z,94730.25
2017-09-03T04:56:48.161Z,94728.70
2017-09-03T04:59:15.689Z,94735.91
2017-09-03T05:01:43.287Z,94729.72
2017-09-03T05:04:10.887Z,94728.84
2017-09-03T05:06:38.637Z,94742.59
2017-09-03T05:09:06.235Z,94749.79
2017-09-03T05:11:33.774Z,94748.94
2017-09-03T05:14:01.593Z,94743.25
2017-09-03T05:16:29.166Z,94754.31
2017-09-03T05:18:56.928Z,94753.81
2017-09-03T05:21:24.775Z,94758.20
2017-09-03T05:23:52.346Z,94753.97
2017-09-03T05:26:19.890Z,94746.34
2017-09-03T05:28:47.657Z,94727.07
2017-09-03T05:31:15.243Z,94723.73
2017-09-03T05:33:42.795Z,94718.19
2017-09-03T05:36:10.377Z,94717.86
2017-09-03T05:38:37.960Z,94708.45
2017-09-03T05:41:05.726Z,94711.09
2017-09-03T05:43:33.522Z,94708.65
2017-09-03T05:46:01.100Z,94685.62
2017-09-03T05:48:28.699Z,94697.67
2017-09-03T05:50:56.233Z,94712.80
2017-09-03T05:53:23.823Z,94708.88
2017-09-03T05:55:51.392Z,94691.77
2017-09-03T05:58:18.909Z,94701.34
2017-09-03T06:00:48.566Z,94712.11
2017-09-03T06:03:16.120Z,94702.64
2017-09-03T06:05:43.714Z,94699.50
2017-09-03T06:08:11.285Z,94690.61
2017-09-03T06:10:38.859Z,94697.95
2017-09-03T06:13:06.985Z,94698.34
2017-09-03T06:15:34.567Z,94680.22
2017-09-03T06:18:02.109Z,94681.70
2017-09-03T06:20:29.627Z,94696.28
2017-09-03T06:22:57.176Z,94685.50
2017-09-03T06:25:24.728Z,94691.75
2017-09-03T06:27:53.056Z,94683.30
2017-09-03T06:30:20.621Z,94688.25
2017-09-03T06:32:48.156Z,94699.70
2017-09-03T06:35:15.724Z,94693.64
2017-09-03T06:37:43.283Z,94682.49
2017-09-03T06:40:11.016Z,94683.78
2017-09-03T06:42:38.540Z,94674.28
2017-09-03T06:45:06.083Z,94677.76
2017-09-03T06:47:34.069Z,94674.88
2017-09-03T06:50:01.580Z,94654.66
2017-09-03T06:52:29.964Z,94659.56
2017-09-03T06:54:57.518Z,94677.34
2017-09-03T06:57:25.021Z,94679.27
2017-09-03T06:59:52.614Z,94667.85
2017-09-03T07:02:20.187Z,94641.67
2017-09-03T07:04:47.740Z,94659.47
2017-09-03T07:07:15.296Z,94654.86
2017-09-03T07:09:42.887Z,94666.45
2017-09-03T07:12:10.460Z,94667.28
2017-09-03T07:14:38.212Z,94673.52
2017-09-03T07:17:05.823Z,94688.02
2017-09-03T07:19:33.409Z,94693.22
2017-09-03T07:22:01.145Z,94691.66
2017-09-03T07:24:28.723Z,94691.42
2017-09-03T07:26:56.242Z,94698.02
2017-09-03T07:29:24.020Z,94700.45
2017-09-03T07:31:51.554Z,94701.69
2017-09-03T07:34:19.128Z,94718.80
2017-09-03T07:36:46.661Z,94730.17
2017-09-03T07:39:14.221Z,94734.31
2017-09-03T07:41:41.797Z,94729.44
2017-09-03T07:44:09.346Z,94726.41
2017-09-03T07:46:36.948Z,94733.31
2017-09-03T07:49:04.724Z,94737.73
2017-09-03T07:51:32.527Z,94734.75
2017-09-03T07:54:00.147Z,94747.78
2017-09-03T07:56:27.669Z,94747.13
2017-09-03T07:58:55.196Z,94750.61
2017-09-03T08:01:22.744Z,94772.60
2017-09-03T08:03:50.272Z,94806.50
2017-09-03T08:06:17.819Z,94867.97
2017-09-03T08:08:45.364Z,94969.77
2017-09-03T08:11:13.123Z,95006.86
2017-09-03T08:13:40.695Z,95053.50
2017-09-03T08:16:08.261Z,95013.92
2017-09-03T08:18:36.032Z,95034.26
2017-09-03T08:21:03.816Z,95023.89
2017-09-03T08:23:31.609Z,94995.09
2017-09-03T08:25:59.304Z,94988.48
2017-09-03T08:28:26.881Z,94984.94
2017-09-03T08:30:54.433Z,94978.02
2017-09-03T08:33:22.016Z,94993.45
2017-09-03T08:35:49.642Z,94984.06
2017-09-03T08:38:17.222Z,94980.80
2017-09-03T08:40:44.834Z,94994.17
2017-09-03T08:43:12.577Z,94985.73
2017-09-03T08:45:40.167Z,94973.13
2017-09-03T08:48:07.953Z,94997.09
2017-09-03T08:50:35.812Z,95022.27
2017-09-03T08:53:03.486Z,95027.73
2017-09-03T08:59:36.179Z,94965.63
2017-09-03T09:02:03.740Z,94961.30
2017-09-03T09:04:31.259Z,94963.69
2017-09-03T09:06:59.015Z,94975.09
2017-09-03T09:09:26.740Z,94951.67
2017-09-03T09:11:54.276Z,94899.48
2017-09-03T09:14:22.628Z,94913.00
2017-09-03T09:16:51.372Z,94975.60
2017-09-03T09:32:49.794Z,94834.88
2017-09-03T09:35:17.353Z,94777.28
2017-09-03T09:37:44.943Z,94745.48
2017-09-03T09:40:12.572Z,94733.61
2017-09-03T09:42:40.119Z,94690.27
2017-09-03T09:45:07.622Z,94679.91
2017-09-03T09:47:35.175Z,94701.56
2017-09-03T09:50:02.792Z,94687.63
2017-09-03T09:52:30.389Z,94630.35
2017-09-03T09:54:57.955Z,94640.05
2017-09-03T09:57:25.469Z,94657.59
2017-09-03T09:59:53.845Z,94639.83
2017-09-03T10:02:21.563Z,94624.47
2017-09-03T10:04:50.893Z,94621.20
2017-09-03T10:07:18.410Z,94611.70
2017-09-03T10:09:46.097Z,94620.75
2017-09-03T10:12:15.749Z,94635.80
2017-09-03T10:14:43.326Z,94728.94
2017-09-03T10:17:12.913Z,94763.27
2017-09-03T10:19:40.668Z,94747.41
2017-09-03T10:22:08.231Z,94741.52
2017-09-03T10:24:40.864Z,94695.00
2017-09-03T10:27:13.232Z,94738.73
2017-09-03T10:29:40.882Z,94691.53
2017-09-03T10:32:08.648Z,94678.41
2017-09-03T10:34:36.224Z,94667.47
2017-09-03T10:37:03.837Z,94659.14
2017-09-03T10:39:32.438Z,94677.66
2017-09-03T10:42:02.844Z,94665.08
2017-09-03T10:44:30.512Z,94644.09
2017-09-03T10:46:58.496Z,94691.83
2017-09-03T10:49:27.366Z,94678.80
2017-09-03T10:51:54.966Z,94673.77
2017-09-03T10:54:22.559Z,94698.56
2017-09-03T10:56:50.297Z,94691.88
2017-09-03T10:59:18.083Z,94681.70
2017-09-03T11:01:45.685Z,94675.03
2017-09-03T11:04:13.215Z,94652.84
2017-09-03T11:06:40.752Z,94650.14
2017-09-03T11:09:08.346Z,94661.00
2017-09-03T11:11:35.841Z,94659.12
2017-09-03T11:14:03.354Z,94633.81
2017-09-03T11:16:31.451Z,94626.98
2017-09-03T11:18:59.041Z,94615.48
2017-09-03T11:21:26.803Z,94617.09
2017-09-03T11:23:54.404Z,94627.67
2017-09-03T11:26:22.183Z,94599.91
2017-09-03T11:28:49.695Z,94610.11
2017-09-03T11:31:17.275Z,94609.59
2017-09-03T11:33:44.790Z,94598.37
2017-09-03T11:36:12.559Z,94594.50
2017-09-03T11:38:40.801Z,94585.64
2017-09-03T11:41:12.054Z,94584.86
2017-09-03T11:43:39.845Z,94577.77
2017-09-03T11:46:07.620Z,94569.81
2017-09-03T11:48:35.146Z,94567.58
2017-09-03T11:51:03.037Z,94551.64
2017-09-03T11:53:30.629Z,94547.47
2017-09-03T11:55:58.595Z,94553.73
2017-09-03T11:58:26.873Z,94560.48
2017-09-03T12:00:55.444Z,94557.41
2017-09-03T12:03:23.656Z,94541.19
2017-09-03T12:05:51.284Z,94541.33
2017-09-03T12:08:19.637Z,94550.27
2017-09-03T12:10:47.198Z,94555.70
2017-09-03T12:13:15.786Z,94544.02
2017-09-03T12:15:43.376Z,94553.50
2017-09-03T12:18:10.980Z,94543.72
2017-09-03T12:20:38.584Z,94535.31
2017-09-03T12:23:11.377Z,94535.12
2017-09-03T12:25:39.047Z,94525.50
2017-09-03T12:28:06.752Z,94525.59
2017-09-03T12:30:34.367Z,94510.12
2017-09-03T12:33:01.970Z,94504.93
2017-09-03T12:35:30.006Z,94506.54
2017-09-03T12:37:57.690Z,94497.52
2017-09-03T12:40:25.575Z,94504.86
2017-09-03T12:42:53.968Z,94486.89
2017-09-03T12:45:21.626Z,94490.41
2017-09-03T12:47:49.970Z,94486.60
2017-09-03T12:50:17.739Z,94489.13
2017-09-03T12:52:45.406Z,94481.91
2017-09-03T12:55:12.957Z,94477.98
2017-09-03T12:57:40.469Z,94467.91
2017-09-03T13:00:08.136Z,94466.19
2017-09-03T13:02:35.748Z,94463.22
2017-09-03T13:05:03.516Z,94472.51
2017-09-03T13:07:31.089Z,94471.64
2017-09-03T13:09:59.264Z,94462.13
2017-09-03T13:12:27.116Z,94455.70
2017-09-03T13:14:54.704Z,94456.56
2017-09-03T13:17:22.325Z,94450.68
2017-09-03T13:19:49.856Z,94446.88
2017-09-03T13:22:18.353Z,94438.75
2017-09-03T13:24:45.919Z,94440.53
2017-09-03T13:27:13.685Z,94430.72
2017-09-03T13:29:41.267Z,94417.39
2017-09-03T13:32:08.841Z,94418.66
2017-09-03T13:34:36.360Z,94416.48
2017-09-03T13:37:03.882Z,94410.07
2017-09-03T13:39:31.464Z,94391.45
2017-09-03T13:41:58.960Z,94414.86
2017-09-03T13:44:26.482Z,94412.91
2017-09-03T13:46:54.031Z,94398.76
2017-09-03T13:49:21.546Z,94391.02
2017-09-03T13:51:49.068Z,94389.91
2017-09-03T13:54:17.469Z,94398.10
2017-09-03T13:56:44.985Z,94381.34
2017-09-03T13:59:12.520Z,94387.20
2017-09-03T14:01:40.084Z,94382.30
2017-09-03T14:04:07.943Z,94375.52
2017-09-03T14:06:35.444Z,94373.51
2017-09-03T14:09:02.997Z,94381.05
2017-09-03T14:11:30.519Z,94367.61
2017-09-03T14:13:58.064Z,94378.39
2017-09-03T14:16:25.633Z,94363.02
2017-09-03T14:18:53.156Z,94369.98
2017-09-03T14:21:20.667Z,94380.03
2017-09-03T14:23:48.211Z,94342.61
2017-09-03T14:26:15.742Z,94350.55
2017-09-03T14:28:43.268Z,94353.52
2017-09-03T14:31:10.863Z,94338.08
2017-09-03T14:33:38.425Z,94322.74
2017-09-03T14:36:06.032Z,94324.09
2017-09-03T14:38:33.587Z,94323.73
2017-09-03T14:41:01.371Z,94339.25
2017-09-03T14:43:29.372Z,94338.24
2017-09-03T14:46:13.819Z,94320.91
2017-09-03T14:48:41.340Z,94330.79
2017-09-03T14:51:08.869Z,94329.34
2017-09-03T14:53:36.671Z,94323.84
2017-09-03T14:56:05.940Z,94324.27
2017-09-03T14:58:33.634Z,94330.48
2017-09-03T15:01:01.265Z,94329.89
2017-09-03T15:03:29.667Z,94325.34
2017-09-03T15:05:57.494Z,94344.80
2017-09-03T15:08:25.116Z,94365.79
2017-09-03T15:10:52.881Z,94364.22
2017-09-03T15:13:20.511Z,94373.22
2017-09-03T15:15:48.124Z,94390.05
2017-09-03T15:18:15.676Z,94387.36
2017-09-03T15:20:43.281Z,94392.03
2017-09-03T15:23:11.360Z,94404.44
2017-09-03T15:25:38.978Z,94396.89
2017-09-03T15:28:06.530Z,94406.27
2017-09-03T15:30:35.035Z,94447.30
2017-09-03T15:33:02.645Z,94486.90
2017-09-03T15:35:30.231Z,94483.20
2017-09-03T15:37:57.866Z,94501.06
2017-09-03T15:40:25.417Z,94515.56
2017-09-03T15:42:52.998Z,94524.16
2017-09-03T15:45:20.581Z,94489.30
2017-09-03T15:47:48.327Z,94513.08
2017-09-03T15:50:15.891Z,94507.63
2017-09-03T15:52:43.485Z,94517.26
2017-09-03T15:55:11.046Z,94522.67
2017-09-03T15:57:38.567Z,94542.61
2017-09-03T16:00:06.551Z,94566.34
2017-09-03T16:02:34.411Z,94581.59
2017-09-03T16:05:02.005Z,94586.23
2017-09-03T16:07:29.597Z,94579.34
2017-09-03T16:09:57.157Z,94591.08
2017-09-03T16:12:24.910Z,94615.43
2017-09-03T16:14:52.608Z,94630.61
2017-09-03T16:17:20.197Z,94659.53
2017-09-03T16:19:47.787Z,94660.17
2017-09-03T16:22:15.386Z,94652.07
2017-09-03T16:24:42.897Z,94665.47
2017-09-03T16:27:10.480Z,94670.55
2017-09-03T16:29:38.105Z,94645.50
2017-09-03T16:32:06.200Z,94641.63
2017-09-03T16:34:33.766Z,94629.06
2017-09-03T16:37:01.317Z,94636.18
2017-09-03T16:39:28.941Z,94641.33
2017-09-03T16:41:56.803Z,94646.09
2017-09-03T16:44:24.361Z,94639.55
2017-09-03T16:46:51.983Z,94651.61
2017-09-03T16:49:19.587Z,94669.09
2017-09-03T16:51:47.144Z,94681.67
2017-09-03T16:54:15.925Z,94680.59
2017-09-03T16:56:43.751Z,94671.62
2017-09-03T16:59:11.311Z,94688.96
2017-09-03T17:01:38.926Z,94677.67
2017-09-03T17:04:07.395Z,94684.09
2017-09-03T17:06:35.171Z,94683.03
2017-09-03T17:09:02.815Z,94681.48
2017-09-03T17:11:30.410Z,94676.86
2017-09-03T17:13:58.012Z,94683.34
2017-09-03T17:16:26.241Z,94678.45
2017-09-03T17:18:54.049Z,94680.41
2017-09-03T17:21:21.700Z,94689.78
2017-09-03T17:23:49.588Z,94691.09
2017-09-03T17:26:17.229Z,94696.63
2017-09-03T17:28:46.022Z,94708.55
2017-09-03T17:34:31.357Z,94710.72
2017-09-03T17:37:00.658Z,94712.20
2017-09-03T17:39:30.533Z,94711.14
2017-09-03T17:42:02.770Z,94712.82
2017-09-03T17:44:32.345Z,94714.24
2017-09-03T17:47:03.941Z,94714.17
2017-09-03T17:49:31.991Z,94721.50
2017-09-03T17:51:59.742Z,94723.19
2017-09-03T17:54:29.268Z,94723.55
2017-09-03T17:56:57.707Z,94726.02
2017-09-03T17:59:28.033Z,94727.87
2017-09-03T18:01:55.657Z,94733.59
2017-09-03T18:04:23.414Z,94745.18
2017-09-03T18:06:50.972Z,94758.78
2017-09-03T18:09:19.478Z,94752.39
2017-09-03T18:11:47.155Z,94737.02
2017-09-03T18:14:15.539Z,94727.88
2017-09-03T18:16:43.164Z,94734.86
2017-09-03T18:19:10.931Z,94751.03
2017-09-03T18:21:38.572Z,94756.72
2017-09-03T18:24:06.973Z,94760.31
2017-09-03T18:26:34.571Z,94755.34
2017-09-03T20:43:09.007Z,94918.31
2017-09-03T20:56:01.610Z,94933.83
2017-09-03T20:58:42.016Z,94936.09
2017-09-03T21:01:25.115Z,94941.64
2017-09-03T21:04:03.414Z,94942.09
2017-09-03T21:17:37.949Z,94956.02
2017-09-03T21:20:07.158Z,94965.30
2017-09-03T21:22:35.864Z,94966.91
2017-09-03T21:25:05.220Z,94961.20
2017-09-03T21:30:34.390Z,94956.80
2017-09-03T21:36:11.361Z,94974.80
2017-09-03T21:38:41.900Z,94966.38
2017-09-03T21:41:09.606Z,94967.78
2017-09-03T21:43:37.280Z,94968.19
2017-09-03T21:46:04.854Z,94973.62
2017-09-03T21:48:32.513Z,94988.84
2017-09-03T21:51:01.076Z,94988.82
2017-09-03T21:53:30.219Z,94992.59
2017-09-03T21:56:08.517Z,94991.40
2017-09-03T21:58:36.117Z,94989.62
2017-09-03T22:01:03.841Z,94996.31
2017-09-03T22:03:31.473Z,95009.17
2017-09-03T22:05:59.103Z,95011.33
2017-09-03T22:08:27.386Z,95013.69
2017-09-03T22:10:55.957Z,95019.03
2017-09-03T22:13:23.566Z,95011.63
2017-09-03T22:15:51.209Z,95015.50
2017-09-03T22:18:18.883Z,95021.16
2017-09-03T22:20:46.489Z,95019.38
2017-09-03T22:23:14.880Z,95025.69
2017-09-03T22:25:42.519Z,95027.23
2017-09-03T22:28:10.150Z,95020.78
2017-09-03T22:30:38.578Z,95022.18
2017-09-03T22:33:06.218Z,95018.67
2017-09-03T22:38:54.698Z,95026.88
2017-09-03T22:41:24.894Z,95024.31
2017-09-03T22:43:55.413Z,95023.34
2017-09-03T22:46:23.139Z,95012.02
2017-09-03T22:49:05.371Z,95010.88
2017-09-03T22:51:33.883Z,95025.53
2017-09-03T22:54:02.916Z,95026.69
2017-09-03T22:56:30.484Z,95017.92
2017-09-03T22:59:06.501Z,95015.91
2017-09-03T23:05:18.891Z,95013.79
2017-09-03T23:11:17.413Z,95019.50
2017-09-03T23:40:15.841Z,95056.32
2017-09-03T23:48:28.196Z,95053.02
2017-09-03T23:50:55.931Z,95049.53
2017-09-03T23:53:30.793Z,95051.67
2017-09-03T23:55:58.552Z,95053.05
2017-09-03T23:58:26.352Z,95067.10
